sensor_id;sensor_type;location;lat;lon;timestamp;P1;durP1;ratioP1;P2;durP2;ratioP2
23668;SDS011;12011;47.422;15.018;2024-01-15T00:00:31;21.69;;;20.80;;
23668;SDS011;12011;47.422;15.018;2024-01-15T00:03:01;21.89;;;21.15;;
23668;SDS011;12011;47.422;15.018;2024-01-15T00:05:34;19.85;;;19.18;;
23668;SDS011;12011;47.422;15.018;2024-01-15T00:08:06;20.29;;;19.63;;
23668;SDS011;12011;47.422;15.018;2024-01-15T00:10:36;21.45;;;20.65;;
23668;SDS011;12011;47.422;15.018;2024-01-15T00:13:09;25.32;;;24.11;;
23668;SDS011;12011;47.422;15.018;2024-01-15T00:15:45;23.05;;;22.09;;
23668;SDS011;12011;47.422;15.018;2024-01-15T00:18:27;21.59;;;20.24;;
23668;SDS011;12011;47.422;15.018;2024-01-15T00:21:06;16.58;;;16.05;;
23668;SDS011;12011;47.422;15.018;2024-01-15T00:23:45;13.10;;;12.70;;
23668;SDS011;12011;47.422;15.018;2024-01-15T00:26:23;13.32;;;12.91;;
23668;SDS011;12011;47.422;15.018;2024-01-15T00:28:57;15.40;;;14.90;;
23668;SDS011;12011;47.422;15.018;2024-01-15T00:31:35;16.34;;;15.78;;
23668;SDS011;12011;47.422;15.018;2024-01-15T00:34:06;17.55;;;16.84;;
23668;SDS011;12011;47.422;15.018;2024-01-15T00:36:44;22.01;;;21.40;;
23668;SDS011;12011;47.422;15.018;2024-01-15T00:39:15;19.22;;;18.72;;
23668;SDS011;12011;47.422;15.018;2024-01-15T00:41:55;14.77;;;14.23;;
23668;SDS011;12011;47.422;15.018;2024-01-15T00:44:27;17.37;;;16.71;;
23668;SDS011;12011;47.422;15.018;2024-01-15T00:47:04;17.07;;;16.63;;
23668;SDS011;12011;47.422;15.018;2024-01-15T00:49:34;17.51;;;16.86;;
23668;SDS011;12011;47.422;15.018;2024-01-15T00:52:04;17.15;;;16.72;;
23668;SDS011;12011;47.422;15.018;2024-01-15T00:54:39;16.94;;;16.54;;
23668;SDS011;12011;47.422;15.018;2024-01-15T00:57:11;17.28;;;16.77;;
23668;SDS011;12011;47.422;15.018;2024-01-15T00:59:45;15.29;;;14.80;;
23668;SDS011;12011;47.422;15.018;2024-01-15T01:02:25;13.86;;;13.33;;
23668;SDS011;12011;47.422;15.018;2024-01-15T01:04:57;13.86;;;13.50;;
23668;SDS011;12011;47.422;15.018;2024-01-15T01:07:29;10.85;;;10.62;;
23668;SDS011;12011;47.422;15.018;2024-01-15T01:10:05;10.72;;;10.56;;
23668;SDS011;12011;47.422;15.018;2024-01-15T01:12:39;10.62;;;10.44;;
23668;SDS011;12011;47.422;15.018;2024-01-15T01:15:16;10.61;;;10.40;;
23668;SDS011;12011;47.422;15.018;2024-01-15T01:17:50;10.99;;;10.81;;
23668;SDS011;12011;47.422;15.018;2024-01-15T01:20:28;19.91;;;19.33;;
23668;SDS011;12011;47.422;15.018;2024-01-15T01:23:04;20.54;;;19.87;;
23668;SDS011;12011;47.422;15.018;2024-01-15T01:25:35;22.21;;;21.56;;
23668;SDS011;12011;47.422;15.018;2024-01-15T01:28:16;20.50;;;19.76;;
23668;SDS011;12011;47.422;15.018;2024-01-15T01:30:49;18.10;;;17.29;;
23668;SDS011;12011;47.422;15.018;2024-01-15T01:33:26;16.68;;;16.20;;
23668;SDS011;12011;47.422;15.018;2024-01-15T01:36:09;15.33;;;15.07;;
23668;SDS011;12011;47.422;15.018;2024-01-15T01:38:40;22.70;;;22.39;;
23668;SDS011;12011;47.422;15.018;2024-01-15T01:41:21;17.37;;;17.20;;
23668;SDS011;12011;47.422;15.018;2024-01-15T01:43:54;16.26;;;15.97;;
23668;SDS011;12011;47.422;15.018;2024-01-15T01:46:24;11.98;;;11.80;;
23668;SDS011;12011;47.422;15.018;2024-01-15T01:48:58;12.37;;;12.10;;
23668;SDS011;12011;47.422;15.018;2024-01-15T01:51:31;13.85;;;13.58;;
23668;SDS011;12011;47.422;15.018;2024-01-15T01:54:07;13.57;;;13.38;;
23668;SDS011;12011;47.422;15.018;2024-01-15T01:56:44;10.21;;;9.99;;
23668;SDS011;12011;47.422;15.018;2024-01-15T01:59:21;10.46;;;10.29;;
23668;SDS011;12011;47.422;15.018;2024-01-15T02:01:54;12.74;;;12.57;;
23668;SDS011;12011;47.422;15.018;2024-01-15T02:04:27;11.98;;;11.83;;
23668;SDS011;12011;47.422;15.018;2024-01-15T02:07:03;11.67;;;11.45;;
23668;SDS011;12011;47.422;15.018;2024-01-15T02:09:37;10.62;;;10.44;;
23668;SDS011;12011;47.422;15.018;2024-01-15T02:12:08;10.41;;;10.24;;
23668;SDS011;12011;47.422;15.018;2024-01-15T02:14:45;9.67;;;9.47;;
23668;SDS011;12011;47.422;15.018;2024-01-15T02:17:17;9.06;;;8.92;;
23668;SDS011;12011;47.422;15.018;2024-01-15T02:19:52;8.77;;;8.58;;
23668;SDS011;12011;47.422;15.018;2024-01-15T02:22:23;9.11;;;8.95;;
23668;SDS011;12011;47.422;15.018;2024-01-15T02:24:55;8.60;;;8.38;;
23668;SDS011;12011;47.422;15.018;2024-01-15T02:27:30;8.94;;;8.71;;
23668;SDS011;12011;47.422;15.018;2024-01-15T02:30:03;9.20;;;8.99;;
23668;SDS011;12011;47.422;15.018;2024-01-15T02:32:39;10.68;;;10.46;;
23668;SDS011;12011;47.422;15.018;2024-01-15T02:35:11;11.73;;;11.41;;
23668;SDS011;12011;47.422;15.018;2024-01-15T02:37:43;11.06;;;10.82;;
23668;SDS011;12011;47.422;15.018;2024-01-15T02:40:19;11.74;;;11.48;;
23668;SDS011;12011;47.422;15.018;2024-01-15T02:42:50;10.96;;;10.82;;
23668;SDS011;12011;47.422;15.018;2024-01-15T02:45:22;11.36;;;11.20;;
23668;SDS011;12011;47.422;15.018;2024-01-15T02:47:57;28.77;;;28.04;;
23668;SDS011;12011;47.422;15.018;2024-01-15T02:50:39;13.58;;;13.34;;
23668;SDS011;12011;47.422;15.018;2024-01-15T02:53:09;11.29;;;11.07;;
23668;SDS011;12011;47.422;15.018;2024-01-15T02:55:45;10.41;;;10.26;;
23668;SDS011;12011;47.422;15.018;2024-01-15T02:58:18;10.40;;;10.24;;
23668;SDS011;12011;47.422;15.018;2024-01-15T03:00:47;10.72;;;10.49;;
23668;SDS011;12011;47.422;15.018;2024-01-15T03:03:21;10.96;;;10.69;;
23668;SDS011;12011;47.422;15.018;2024-01-15T03:05:56;9.44;;;9.20;;
23668;SDS011;12011;47.422;15.018;2024-01-15T03:08:30;10.40;;;10.15;;
23668;SDS011;12011;47.422;15.018;2024-01-15T03:11:06;9.69;;;9.36;;
23668;SDS011;12011;47.422;15.018;2024-01-15T03:13:36;8.77;;;8.60;;
23668;SDS011;12011;47.422;15.018;2024-01-15T03:16:07;8.91;;;8.76;;
23668;SDS011;12011;47.422;15.018;2024-01-15T03:18:50;9.80;;;9.61;;
23668;SDS011;12011;47.422;15.018;2024-01-15T03:21:22;10.41;;;10.28;;
23668;SDS011;12011;47.422;15.018;2024-01-15T03:23:52;10.99;;;10.81;;
23668;SDS011;12011;47.422;15.018;2024-01-15T03:26:26;11.73;;;11.49;;
23668;SDS011;12011;47.422;15.018;2024-01-15T03:29:02;10.80;;;10.63;;
23668;SDS011;12011;47.422;15.018;2024-01-15T03:31:38;11.15;;;10.91;;
23668;SDS011;12011;47.422;15.018;2024-01-15T03:34:09;9.96;;;9.75;;
23668;SDS011;12011;47.422;15.018;2024-01-15T03:36:39;9.11;;;8.95;;
23668;SDS011;12011;47.422;15.018;2024-01-15T03:39:12;9.75;;;9.54;;
23668;SDS011;12011;47.422;15.018;2024-01-15T03:41:46;8.98;;;8.89;;
23668;SDS011;12011;47.422;15.018;2024-01-15T03:44:23;9.31;;;9.22;;
23668;SDS011;12011;47.422;15.018;2024-01-15T03:47:07;8.04;;;7.94;;
23668;SDS011;12011;47.422;15.018;2024-01-15T03:49:39;8.31;;;8.21;;
23668;SDS011;12011;47.422;15.018;2024-01-15T03:52:13;9.04;;;8.86;;
23668;SDS011;12011;47.422;15.018;2024-01-15T03:54:43;8.19;;;8.01;;
23668;SDS011;12011;47.422;15.018;2024-01-15T03:57:18;7.01;;;6.87;;
23668;SDS011;12011;47.422;15.018;2024-01-15T03:59:49;7.71;;;7.52;;
23668;SDS011;12011;47.422;15.018;2024-01-15T04:02:18;7.46;;;7.34;;
23668;SDS011;12011;47.422;15.018;2024-01-15T04:04:48;8.44;;;8.29;;
23668;SDS011;12011;47.422;15.018;2024-01-15T04:07:22;10.97;;;10.82;;
23668;SDS011;12011;47.422;15.018;2024-01-15T04:09:59;9.72;;;9.58;;
23668;SDS011;12011;47.422;15.018;2024-01-15T04:12:45;8.97;;;8.81;;
23668;SDS011;12011;47.422;15.018;2024-01-15T04:15:18;9.04;;;8.87;;
23668;SDS011;12011;47.422;15.018;2024-01-15T04:17:52;8.74;;;8.58;;
23668;SDS011;12011;47.422;15.018;2024-01-15T04:20:23;9.19;;;8.98;;
23668;SDS011;12011;47.422;15.018;2024-01-15T04:23:07;8.84;;;8.57;;
23668;SDS011;12011;47.422;15.018;2024-01-15T04:25:36;8.39;;;8.18;;
23668;SDS011;12011;47.422;15.018;2024-01-15T04:28:15;8.57;;;8.40;;
23668;SDS011;12011;47.422;15.018;2024-01-15T04:30:49;8.27;;;8.01;;
23668;SDS011;12011;47.422;15.018;2024-01-15T04:33:27;8.45;;;8.24;;
23668;SDS011;12011;47.422;15.018;2024-01-15T04:36:05;8.53;;;8.34;;
23668;SDS011;12011;47.422;15.018;2024-01-15T04:38:36;8.30;;;8.14;;
23668;SDS011;12011;47.422;15.018;2024-01-15T04:41:10;8.83;;;8.71;;
23668;SDS011;12011;47.422;15.018;2024-01-15T04:43:50;8.14;;;8.00;;
23668;SDS011;12011;47.422;15.018;2024-01-15T04:46:21;8.68;;;8.48;;
23668;SDS011;12011;47.422;15.018;2024-01-15T04:48:53;8.58;;;8.39;;
23668;SDS011;12011;47.422;15.018;2024-01-15T04:51:26;8.63;;;8.39;;
23668;SDS011;12011;47.422;15.018;2024-01-15T04:53:55;8.31;;;8.13;;
23668;SDS011;12011;47.422;15.018;2024-01-15T04:56:34;9.77;;;9.55;;
23668;SDS011;12011;47.422;15.018;2024-01-15T04:59:08;10.23;;;10.05;;
23668;SDS011;12011;47.422;15.018;2024-01-15T05:01:38;10.49;;;10.25;;
23668;SDS011;12011;47.422;15.018;2024-01-15T05:04:12;11.24;;;11.00;;
23668;SDS011;12011;47.422;15.018;2024-01-15T05:06:42;10.66;;;10.39;;
23668;SDS011;12011;47.422;15.018;2024-01-15T05:09:14;9.89;;;9.76;;
23668;SDS011;12011;47.422;15.018;2024-01-15T05:11:46;9.63;;;9.46;;
23668;SDS011;12011;47.422;15.018;2024-01-15T05:14:23;9.67;;;9.60;;
23668;SDS011;12011;47.422;15.018;2024-01-15T05:16:53;10.14;;;9.87;;
23668;SDS011;12011;47.422;15.018;2024-01-15T05:19:25;9.33;;;9.07;;
23668;SDS011;12011;47.422;15.018;2024-01-15T05:21:56;8.90;;;8.76;;
23668;SDS011;12011;47.422;15.018;2024-01-15T05:24:31;9.09;;;8.95;;
23668;SDS011;12011;47.422;15.018;2024-01-15T05:27:02;9.93;;;9.79;;
23668;SDS011;12011;47.422;15.018;2024-01-15T05:29:36;10.38;;;10.18;;
23668;SDS011;12011;47.422;15.018;2024-01-15T05:32:08;11.44;;;11.26;;
23668;SDS011;12011;47.422;15.018;2024-01-15T05:34:38;13.17;;;12.77;;
23668;SDS011;12011;47.422;15.018;2024-01-15T05:37:08;12.49;;;12.25;;
23668;SDS011;12011;47.422;15.018;2024-01-15T05:39:45;15.41;;;15.08;;
23668;SDS011;12011;47.422;15.018;2024-01-15T05:42:17;16.18;;;15.83;;
23668;SDS011;12011;47.422;15.018;2024-01-15T05:44:49;15.76;;;15.54;;
23668;SDS011;12011;47.422;15.018;2024-01-15T05:47:19;15.83;;;15.55;;
23668;SDS011;12011;47.422;15.018;2024-01-15T05:49:49;16.80;;;16.49;;
23668;SDS011;12011;47.422;15.018;2024-01-15T05:52:18;14.73;;;14.46;;
23668;SDS011;12011;47.422;15.018;2024-01-15T05:54:49;12.90;;;12.74;;
23668;SDS011;12011;47.422;15.018;2024-01-15T05:57:18;12.36;;;12.24;;
23668;SDS011;12011;47.422;15.018;2024-01-15T05:59:51;11.43;;;11.32;;
23668;SDS011;12011;47.422;15.018;2024-01-15T06:02:21;12.32;;;12.16;;
23668;SDS011;12011;47.422;15.018;2024-01-15T06:04:50;12.66;;;12.57;;
23668;SDS011;12011;47.422;15.018;2024-01-15T06:07:20;11.69;;;11.50;;
23668;SDS011;12011;47.422;15.018;2024-01-15T06:09:51;11.53;;;11.26;;
23668;SDS011;12011;47.422;15.018;2024-01-15T06:12:22;11.07;;;10.79;;
23668;SDS011;12011;47.422;15.018;2024-01-15T06:14:56;15.31;;;15.02;;
23668;SDS011;12011;47.422;15.018;2024-01-15T06:17:26;16.43;;;16.20;;
23668;SDS011;12011;47.422;15.018;2024-01-15T06:19:56;14.02;;;13.87;;
23668;SDS011;12011;47.422;15.018;2024-01-15T06:22:27;16.35;;;16.03;;
23668;SDS011;12011;47.422;15.018;2024-01-15T06:24:57;16.24;;;16.05;;
23668;SDS011;12011;47.422;15.018;2024-01-15T06:27:27;14.42;;;14.33;;
23668;SDS011;12011;47.422;15.018;2024-01-15T06:30:00;14.05;;;13.87;;
23668;SDS011;12011;47.422;15.018;2024-01-15T06:32:30;13.79;;;13.58;;
23668;SDS011;12011;47.422;15.018;2024-01-15T06:35:01;17.66;;;17.41;;
23668;SDS011;12011;47.422;15.018;2024-01-15T06:37:31;25.43;;;24.99;;
23668;SDS011;12011;47.422;15.018;2024-01-15T06:40:01;26.66;;;25.75;;
23668;SDS011;12011;47.422;15.018;2024-01-15T06:42:33;18.69;;;18.36;;
23668;SDS011;12011;47.422;15.018;2024-01-15T06:45:08;21.54;;;21.08;;
23668;SDS011;12011;47.422;15.018;2024-01-15T06:47:38;19.66;;;19.33;;
23668;SDS011;12011;47.422;15.018;2024-01-15T06:50:08;19.22;;;18.83;;
23668;SDS011;12011;47.422;15.018;2024-01-15T06:52:38;21.52;;;21.21;;
23668;SDS011;12011;47.422;15.018;2024-01-15T06:55:08;22.35;;;21.97;;
23668;SDS011;12011;47.422;15.018;2024-01-15T06:57:38;20.91;;;20.68;;
23668;SDS011;12011;47.422;15.018;2024-01-15T07:00:12;18.12;;;17.79;;
23668;SDS011;12011;47.422;15.018;2024-01-15T07:02:45;16.47;;;16.14;;
23668;SDS011;12011;47.422;15.018;2024-01-15T07:05:17;16.03;;;15.73;;
23668;SDS011;12011;47.422;15.018;2024-01-15T07:07:47;18.92;;;18.73;;
23668;SDS011;12011;47.422;15.018;2024-01-15T07:10:17;19.86;;;19.57;;
23668;SDS011;12011;47.422;15.018;2024-01-15T07:12:47;15.70;;;15.41;;
23668;SDS011;12011;47.422;15.018;2024-01-15T07:15:20;16.84;;;16.58;;
23668;SDS011;12011;47.422;15.018;2024-01-15T07:17:51;20.09;;;19.92;;
23668;SDS011;12011;47.422;15.018;2024-01-15T07:20:21;21.93;;;21.58;;
23668;SDS011;12011;47.422;15.018;2024-01-15T07:22:51;20.14;;;19.90;;
23668;SDS011;12011;47.422;15.018;2024-01-15T07:25:21;16.76;;;16.54;;
23668;SDS011;12011;47.422;15.018;2024-01-15T07:27:51;15.90;;;15.70;;
23668;SDS011;12011;47.422;15.018;2024-01-15T07:30:24;13.28;;;13.15;;
23668;SDS011;12011;47.422;15.018;2024-01-15T07:32:54;11.26;;;11.10;;
23668;SDS011;12011;47.422;15.018;2024-01-15T07:35:25;11.11;;;10.92;;
23668;SDS011;12011;47.422;15.018;2024-01-15T07:37:55;10.62;;;10.50;;
23668;SDS011;12011;47.422;15.018;2024-01-15T07:40:25;10.93;;;10.78;;
23668;SDS011;12011;47.422;15.018;2024-01-15T07:42:55;9.93;;;9.83;;
23668;SDS011;12011;47.422;15.018;2024-01-15T07:45:27;10.61;;;10.39;;
23668;SDS011;12011;47.422;15.018;2024-01-15T07:47:58;12.88;;;12.57;;
23668;SDS011;12011;47.422;15.018;2024-01-15T07:50:29;12.83;;;12.57;;
23668;SDS011;12011;47.422;15.018;2024-01-15T07:52:59;11.78;;;11.62;;
23668;SDS011;12011;47.422;15.018;2024-01-15T07:55:29;12.85;;;12.57;;
23668;SDS011;12011;47.422;15.018;2024-01-15T07:57:59;13.86;;;13.44;;
23668;SDS011;12011;47.422;15.018;2024-01-15T08:00:31;13.44;;;13.08;;
23668;SDS011;12011;47.422;15.018;2024-01-15T08:03:01;13.89;;;13.45;;
23668;SDS011;12011;47.422;15.018;2024-01-15T08:05:32;12.95;;;12.61;;
23668;SDS011;12011;47.422;15.018;2024-01-15T08:07:58;12.13;;;11.82;;
23668;SDS011;12011;47.422;15.018;2024-01-15T08:10:28;13.08;;;12.77;;
23668;SDS011;12011;47.422;15.018;2024-01-15T08:12:57;14.46;;;14.08;;
23668;SDS011;12011;47.422;15.018;2024-01-15T08:15:27;14.10;;;13.75;;
23668;SDS011;12011;47.422;15.018;2024-01-15T08:17:59;13.02;;;12.79;;
23668;SDS011;12011;47.422;15.018;2024-01-15T08:20:28;14.60;;;14.34;;
23668;SDS011;12011;47.422;15.018;2024-01-15T08:22:58;13.65;;;13.26;;
23668;SDS011;12011;47.422;15.018;2024-01-15T08:25:27;11.65;;;11.51;;
23668;SDS011;12011;47.422;15.018;2024-01-15T08:27:57;11.90;;;11.65;;
23668;SDS011;12011;47.422;15.018;2024-01-15T08:30:26;13.12;;;12.62;;
23668;SDS011;12011;47.422;15.018;2024-01-15T08:32:59;12.08;;;11.65;;
23668;SDS011;12011;47.422;15.018;2024-01-15T08:35:29;10.54;;;10.39;;
23668;SDS011;12011;47.422;15.018;2024-01-15T08:37:58;9.52;;;9.33;;
23668;SDS011;12011;47.422;15.018;2024-01-15T08:40:28;9.33;;;9.24;;
23668;SDS011;12011;47.422;15.018;2024-01-15T08:42:57;10.22;;;10.11;;
23668;SDS011;12011;47.422;15.018;2024-01-15T08:45:27;10.52;;;10.41;;
23668;SDS011;12011;47.422;15.018;2024-01-15T08:47:59;9.93;;;9.85;;
23668;SDS011;12011;47.422;15.018;2024-01-15T08:50:29;9.38;;;9.24;;
23668;SDS011;12011;47.422;15.018;2024-01-15T08:53:00;10.21;;;10.09;;
23668;SDS011;12011;47.422;15.018;2024-01-15T08:55:30;11.10;;;10.91;;
23668;SDS011;12011;47.422;15.018;2024-01-15T08:57:59;12.11;;;12.02;;
23668;SDS011;12011;47.422;15.018;2024-01-15T09:00:29;10.99;;;10.90;;
23668;SDS011;12011;47.422;15.018;2024-01-15T09:03:01;10.78;;;10.66;;
23668;SDS011;12011;47.422;15.018;2024-01-15T09:05:33;10.22;;;10.18;;
23668;SDS011;12011;47.422;15.018;2024-01-15T09:08:04;9.72;;;9.63;;
23668;SDS011;12011;47.422;15.018;2024-01-15T09:10:34;8.48;;;8.39;;
23668;SDS011;12011;47.422;15.018;2024-01-15T09:13:03;8.57;;;8.52;;
23668;SDS011;12011;47.422;15.018;2024-01-15T09:15:33;9.72;;;9.63;;
23668;SDS011;12011;47.422;15.018;2024-01-15T09:18:06;9.45;;;9.36;;
23668;SDS011;12011;47.422;15.018;2024-01-15T09:20:36;9.73;;;9.63;;
23668;SDS011;12011;47.422;15.018;2024-01-15T09:23:05;9.69;;;9.60;;
23668;SDS011;12011;47.422;15.018;2024-01-15T09:25:35;9.33;;;9.25;;
23668;SDS011;12011;47.422;15.018;2024-01-15T09:28:07;9.19;;;9.11;;
23668;SDS011;12011;47.422;15.018;2024-01-15T09:30:43;9.14;;;9.04;;
23668;SDS011;12011;47.422;15.018;2024-01-15T09:33:19;9.54;;;9.43;;
23668;SDS011;12011;47.422;15.018;2024-01-15T09:35:51;9.96;;;9.87;;
23668;SDS011;12011;47.422;15.018;2024-01-15T09:38:25;9.20;;;9.08;;
23668;SDS011;12011;47.422;15.018;2024-01-15T09:40:57;9.58;;;9.49;;
23668;SDS011;12011;47.422;15.018;2024-01-15T09:43:29;10.36;;;10.15;;
23668;SDS011;12011;47.422;15.018;2024-01-15T09:46:04;10.26;;;10.13;;
23668;SDS011;12011;47.422;15.018;2024-01-15T09:48:50;8.97;;;8.80;;
23668;SDS011;12011;47.422;15.018;2024-01-15T09:51:35;11.59;;;11.32;;
23668;SDS011;12011;47.422;15.018;2024-01-15T09:54:24;14.60;;;14.26;;
23668;SDS011;12011;47.422;15.018;2024-01-15T09:56:58;14.89;;;14.67;;
23668;SDS011;12011;47.422;15.018;2024-01-15T09:59:44;13.73;;;13.53;;
23668;SDS011;12011;47.422;15.018;2024-01-15T10:02:30;13.38;;;13.12;;
23668;SDS011;12011;47.422;15.018;2024-01-15T10:05:10;13.52;;;13.24;;
23668;SDS011;12011;47.422;15.018;2024-01-15T10:07:44;12.69;;;12.46;;
23668;SDS011;12011;47.422;15.018;2024-01-15T10:10:22;12.44;;;12.33;;
23668;SDS011;12011;47.422;15.018;2024-01-15T10:13:00;11.38;;;11.14;;
23668;SDS011;12011;47.422;15.018;2024-01-15T10:15:38;8.93;;;8.81;;
23668;SDS011;12011;47.422;15.018;2024-01-15T10:18:08;6.41;;;6.34;;
23668;SDS011;12011;47.422;15.018;2024-01-15T10:20:43;5.80;;;5.68;;
23668;SDS011;12011;47.422;15.018;2024-01-15T10:23:14;4.70;;;4.59;;
23668;SDS011;12011;47.422;15.018;2024-01-15T10:25:46;5.34;;;5.25;;
23668;SDS011;12011;47.422;15.018;2024-01-15T10:28:17;4.19;;;4.13;;
23668;SDS011;12011;47.422;15.018;2024-01-15T10:30:51;3.67;;;3.62;;
23668;SDS011;12011;47.422;15.018;2024-01-15T10:33:22;4.85;;;4.78;;
23668;SDS011;12011;47.422;15.018;2024-01-15T10:35:56;3.78;;;3.73;;
23668;SDS011;12011;47.422;15.018;2024-01-15T10:38:28;4.19;;;4.13;;
23668;SDS011;12011;47.422;15.018;2024-01-15T10:40:57;3.70;;;3.65;;
23668;SDS011;12011;47.422;15.018;2024-01-15T10:43:27;3.35;;;3.29;;
23668;SDS011;12011;47.422;15.018;2024-01-15T10:45:56;3.58;;;3.54;;
23668;SDS011;12011;47.422;15.018;2024-01-15T10:48:27;3.62;;;3.58;;
23668;SDS011;12011;47.422;15.018;2024-01-15T10:51:00;3.75;;;3.72;;
23668;SDS011;12011;47.422;15.018;2024-01-15T10:53:36;3.29;;;3.26;;
23668;SDS011;12011;47.422;15.018;2024-01-15T10:56:08;3.34;;;3.32;;
23668;SDS011;12011;47.422;15.018;2024-01-15T10:58:40;2.99;;;2.96;;
23668;SDS011;12011;47.422;15.018;2024-01-15T11:01:11;4.49;;;4.46;;
23668;SDS011;12011;47.422;15.018;2024-01-15T11:03:42;4.05;;;4.02;;
23668;SDS011;12011;47.422;15.018;2024-01-15T11:06:19;2.40;;;2.37;;
23668;SDS011;12011;47.422;15.018;2024-01-15T11:08:52;5.45;;;5.38;;
23668;SDS011;12011;47.422;15.018;2024-01-15T11:11:22;2.98;;;2.95;;
23668;SDS011;12011;47.422;15.018;2024-01-15T11:13:51;1.85;;;1.83;;
23668;SDS011;12011;47.422;15.018;2024-01-15T11:16:22;1.79;;;1.78;;
23668;SDS011;12011;47.422;15.018;2024-01-15T11:19:02;1.50;;;1.49;;
23668;SDS011;12011;47.422;15.018;2024-01-15T11:21:36;1.44;;;1.43;;
23668;SDS011;12011;47.422;15.018;2024-01-15T11:24:11;1.60;;;1.58;;
23668;SDS011;12011;47.422;15.018;2024-01-15T11:27:06;1.31;;;1.30;;
23668;SDS011;12011;47.422;15.018;2024-01-15T11:29:36;1.47;;;1.46;;
23668;SDS011;12011;47.422;15.018;2024-01-15T11:32:07;1.34;;;1.33;;
23668;SDS011;12011;47.422;15.018;2024-01-15T11:34:50;1.55;;;1.54;;
23668;SDS011;12011;47.422;15.018;2024-01-15T11:37:22;1.40;;;1.38;;
23668;SDS011;12011;47.422;15.018;2024-01-15T11:39:54;1.18;;;1.18;;
23668;SDS011;12011;47.422;15.018;2024-01-15T11:42:29;1.43;;;1.41;;
23668;SDS011;12011;47.422;15.018;2024-01-15T11:44:59;1.34;;;1.33;;
23668;SDS011;12011;47.422;15.018;2024-01-15T11:47:46;1.30;;;1.28;;
23668;SDS011;12011;47.422;15.018;2024-01-15T11:50:43;1.19;;;1.18;;
23668;SDS011;12011;47.422;15.018;2024-01-15T11:53:25;1.10;;;1.09;;
23668;SDS011;12011;47.422;15.018;2024-01-15T11:56:03;1.36;;;1.35;;
23668;SDS011;12011;47.422;15.018;2024-01-15T11:58:44;2.30;;;2.28;;
23668;SDS011;12011;47.422;15.018;2024-01-15T12:01:16;2.19;;;2.17;;
23668;SDS011;12011;47.422;15.018;2024-01-15T12:03:47;2.03;;;2.02;;
23668;SDS011;12011;47.422;15.018;2024-01-15T12:06:17;1.85;;;1.83;;
23668;SDS011;12011;47.422;15.018;2024-01-15T12:08:50;1.66;;;1.64;;
23668;SDS011;12011;47.422;15.018;2024-01-15T12:11:19;1.33;;;1.33;;
23668;SDS011;12011;47.422;15.018;2024-01-15T12:13:55;1.11;;;1.11;;
23668;SDS011;12011;47.422;15.018;2024-01-15T12:16:25;0.96;;;0.96;;
23668;SDS011;12011;47.422;15.018;2024-01-15T12:18:55;0.85;;;0.85;;
23668;SDS011;12011;47.422;15.018;2024-01-15T12:21:26;0.77;;;0.77;;
23668;SDS011;12011;47.422;15.018;2024-01-15T12:23:58;0.83;;;0.83;;
23668;SDS011;12011;47.422;15.018;2024-01-15T12:26:27;0.82;;;0.82;;
23668;SDS011;12011;47.422;15.018;2024-01-15T12:28:57;0.89;;;0.89;;
23668;SDS011;12011;47.422;15.018;2024-01-15T12:31:29;0.95;;;0.95;;
23668;SDS011;12011;47.422;15.018;2024-01-15T12:33:59;0.86;;;0.86;;
23668;SDS011;12011;47.422;15.018;2024-01-15T12:36:31;0.84;;;0.84;;
23668;SDS011;12011;47.422;15.018;2024-01-15T12:39:03;0.80;;;0.80;;
23668;SDS011;12011;47.422;15.018;2024-01-15T12:41:34;0.71;;;0.70;;
23668;SDS011;12011;47.422;15.018;2024-01-15T12:44:04;0.82;;;0.81;;
23668;SDS011;12011;47.422;15.018;2024-01-15T12:46:31;0.93;;;0.92;;
23668;SDS011;12011;47.422;15.018;2024-01-15T12:49:02;1.00;;;0.99;;
23668;SDS011;12011;47.422;15.018;2024-01-15T12:51:34;0.98;;;0.96;;
23668;SDS011;12011;47.422;15.018;2024-01-15T12:54:07;0.85;;;0.84;;
23668;SDS011;12011;47.422;15.018;2024-01-15T12:56:36;0.83;;;0.82;;
23668;SDS011;12011;47.422;15.018;2024-01-15T12:59:06;0.76;;;0.75;;
23668;SDS011;12011;47.422;15.018;2024-01-15T13:01:36;0.86;;;0.85;;
23668;SDS011;12011;47.422;15.018;2024-01-15T13:04:07;0.57;;;0.56;;
23668;SDS011;12011;47.422;15.018;2024-01-15T13:06:37;0.68;;;0.67;;
23668;SDS011;12011;47.422;15.018;2024-01-15T13:09:09;0.63;;;0.62;;
23668;SDS011;12011;47.422;15.018;2024-01-15T13:11:40;0.76;;;0.75;;
23668;SDS011;12011;47.422;15.018;2024-01-15T13:14:09;0.56;;;0.55;;
23668;SDS011;12011;47.422;15.018;2024-01-15T13:16:39;0.63;;;0.61;;
23668;SDS011;12011;47.422;15.018;2024-01-15T13:19:09;0.60;;;0.59;;
23668;SDS011;12011;47.422;15.018;2024-01-15T13:21:40;0.58;;;0.57;;
23668;SDS011;12011;47.422;15.018;2024-01-15T13:24:12;0.60;;;0.59;;
23668;SDS011;12011;47.422;15.018;2024-01-15T13:26:41;0.53;;;0.52;;
23668;SDS011;12011;47.422;15.018;2024-01-15T13:29:11;0.53;;;0.52;;
23668;SDS011;12011;47.422;15.018;2024-01-15T13:31:42;0.56;;;0.55;;
23668;SDS011;12011;47.422;15.018;2024-01-15T13:34:12;0.46;;;0.45;;
23668;SDS011;12011;47.422;15.018;2024-01-15T13:36:42;0.65;;;0.63;;
23668;SDS011;12011;47.422;15.018;2024-01-15T13:39:14;0.57;;;0.57;;
23668;SDS011;12011;47.422;15.018;2024-01-15T13:41:45;0.54;;;0.54;;
23668;SDS011;12011;47.422;15.018;2024-01-15T13:44:15;0.63;;;0.62;;
23668;SDS011;12011;47.422;15.018;2024-01-15T13:46:45;0.53;;;0.53;;
23668;SDS011;12011;47.422;15.018;2024-01-15T13:49:15;0.61;;;0.60;;
23668;SDS011;12011;47.422;15.018;2024-01-15T13:51:44;0.62;;;0.62;;
23668;SDS011;12011;47.422;15.018;2024-01-15T13:54:16;0.69;;;0.68;;
23668;SDS011;12011;47.422;15.018;2024-01-15T13:56:46;0.56;;;0.55;;
23668;SDS011;12011;47.422;15.018;2024-01-15T13:59:16;0.53;;;0.52;;
23668;SDS011;12011;47.422;15.018;2024-01-15T14:01:45;0.62;;;0.61;;
23668;SDS011;12011;47.422;15.018;2024-01-15T14:04:15;0.67;;;0.66;;
23668;SDS011;12011;47.422;15.018;2024-01-15T14:06:45;0.67;;;0.66;;
23668;SDS011;12011;47.422;15.018;2024-01-15T14:09:17;0.65;;;0.65;;
23668;SDS011;12011;47.422;15.018;2024-01-15T14:11:47;0.75;;;0.74;;
23668;SDS011;12011;47.422;15.018;2024-01-15T14:14:17;0.60;;;0.60;;
23668;SDS011;12011;47.422;15.018;2024-01-15T14:16:46;0.65;;;0.65;;
23668;SDS011;12011;47.422;15.018;2024-01-15T14:19:16;0.66;;;0.66;;
23668;SDS011;12011;47.422;15.018;2024-01-15T14:21:46;0.69;;;0.69;;
23668;SDS011;12011;47.422;15.018;2024-01-15T14:24:18;0.59;;;0.59;;
23668;SDS011;12011;47.422;15.018;2024-01-15T14:26:47;0.72;;;0.72;;
23668;SDS011;12011;47.422;15.018;2024-01-15T14:29:17;0.74;;;0.73;;
23668;SDS011;12011;47.422;15.018;2024-01-15T14:31:48;0.60;;;0.60;;
23668;SDS011;12011;47.422;15.018;2024-01-15T14:34:17;0.95;;;0.94;;
23668;SDS011;12011;47.422;15.018;2024-01-15T14:36:49;1.32;;;1.31;;
23668;SDS011;12011;47.422;15.018;2024-01-15T14:39:22;1.02;;;1.01;;
23668;SDS011;12011;47.422;15.018;2024-01-15T14:41:52;0.81;;;0.81;;
23668;SDS011;12011;47.422;15.018;2024-01-15T14:44:22;1.32;;;1.30;;
23668;SDS011;12011;47.422;15.018;2024-01-15T14:46:51;1.00;;;0.99;;
23668;SDS011;12011;47.422;15.018;2024-01-15T14:49:21;0.86;;;0.85;;
23668;SDS011;12011;47.422;15.018;2024-01-15T14:51:51;0.85;;;0.84;;